createdAt,value
2022-12-08T00:00:07.710Z,100303.12
2022-12-08T00:02:58.592Z,100308.55
2022-12-08T00:05:43.889Z,100311.81
2022-12-08T00:08:29.032Z,100314.17
2022-12-08T00:10:55.662Z,100319.84
2022-12-08T00:13:22.303Z,100322.95
2022-12-08T00:15:48.933Z,100330.38
2022-12-08T00:18:15.572Z,100329.03
2022-12-08T00:20:42.204Z,100333.00
2022-12-08T00:23:08.810Z,100334.20
2022-12-08T00:25:36.815Z,100336.06
2022-12-08T00:28:03.549Z,100337.77
2022-12-08T00:30:30.186Z,100340.86
2022-12-08T00:32:56.732Z,100344.15
2022-12-08T00:35:23.458Z,100341.72
2022-12-08T00:37:56.149Z,100345.43
2022-12-08T00:40:26.138Z,100346.74
2022-12-08T00:42:52.755Z,100351.04
2022-12-08T00:45:19.427Z,100358.79
2022-12-08T00:47:46.066Z,100359.13
2022-12-08T00:50:12.685Z,100363.25
2022-12-08T00:52:39.342Z,100364.08
2022-12-08T00:55:06.831Z,100372.28
2022-12-08T00:57:33.433Z,100376.23
2022-12-08T01:00:00.188Z,100380.02
2022-12-08T01:02:27.065Z,100381.57
2022-12-08T01:04:53.658Z,100386.06
2022-12-08T01:07:20.388Z,100392.98
2022-12-08T01:09:47.027Z,100393.32
2022-12-08T01:12:13.662Z,100392.77
2022-12-08T01:14:40.299Z,100395.85
2022-12-08T01:17:07.215Z,100398.23
2022-12-08T01:19:33.987Z,100396.82
2022-12-08T01:22:00.645Z,100396.43
2022-12-08T01:24:27.313Z,100396.40
2022-12-08T01:26:53.963Z,100391.20
2022-12-08T01:29:20.600Z,100390.80
2022-12-08T01:31:47.246Z,100391.47
2022-12-08T01:34:14.266Z,100393.67
2022-12-08T01:36:41.676Z,100389.15
2022-12-08T01:39:13.633Z,100387.37
2022-12-08T01:41:41.455Z,100395.20
2022-12-08T01:44:08.256Z,100397.58
2022-12-08T01:46:37.513Z,100400.10
2022-12-08T01:49:35.289Z,100399.34
2022-12-08T01:52:14.036Z,100397.66
2022-12-08T01:54:53.009Z,100397.41
2022-12-08T01:57:22.350Z,100394.59
2022-12-08T02:00:16.841Z,100403.02
2022-12-08T02:03:03.507Z,100400.33
2022-12-08T02:05:36.333Z,100403.55
2022-12-08T02:08:10.052Z,100408.33
2022-12-08T02:10:39.533Z,100411.48
2022-12-08T02:13:10.364Z,100412.48
2022-12-08T02:15:59.427Z,100417.16
2022-12-08T02:19:02.093Z,100420.80
2022-12-08T02:21:51.685Z,100422.30
2022-12-08T02:24:45.660Z,100423.63
2022-12-08T02:27:46.194Z,100426.85
2022-12-08T02:30:12.839Z,100437.06
2022-12-08T02:33:10.448Z,100437.38
2022-12-08T02:35:48.985Z,100435.09
2022-12-08T02:38:40.643Z,100437.81
2022-12-08T02:41:35.458Z,100443.13
2022-12-08T02:44:13.045Z,100443.96
2022-12-08T02:46:46.977Z,100444.00
2022-12-08T02:49:16.082Z,100438.64
2022-12-08T02:51:42.869Z,100442.69
2022-12-08T02:54:09.910Z,100448.37
2022-12-08T02:56:45.780Z,100451.66
2022-12-08T02:59:24.567Z,100454.25
2022-12-08T03:02:12.278Z,100456.80
2022-12-08T03:04:57.507Z,100460.89
2022-12-08T03:07:50.189Z,100466.34
2022-12-08T03:10:42.678Z,100469.95
2022-12-08T03:13:27.844Z,100468.14
2022-12-08T03:15:56.086Z,100469.36
2022-12-08T03:18:28.803Z,100472.48
2022-12-08T03:20:55.838Z,100472.55
2022-12-08T03:23:24.971Z,100474.13
2022-12-08T03:25:57.957Z,100481.92
2022-12-08T03:28:25.132Z,100482.39
2022-12-08T03:30:57.316Z,100486.80
2022-12-08T03:33:31.427Z,100491.13
2022-12-08T03:36:01.316Z,100488.56
2022-12-08T03:38:40.604Z,100490.65
2022-12-08T03:41:19.273Z,100491.08
2022-12-08T03:43:57.944Z,100495.05
2022-12-08T03:48:53.271Z,100494.03
2022-12-08T03:51:20.441Z,100494.05
2022-12-08T03:53:47.673Z,100497.88
2022-12-08T03:56:33.047Z,100498.75
2022-12-08T03:59:00.023Z,100499.73
2022-12-08T04:01:27.196Z,100499.73
2022-12-08T04:03:54.177Z,100500.05
2022-12-08T04:06:21.699Z,100505.86
2022-12-08T04:08:49.397Z,100509.96
2022-12-08T04:11:16.856Z,100512.60
2022-12-08T04:13:43.672Z,100517.27
2022-12-08T04:16:19.830Z,100515.35
2022-12-08T04:18:47.108Z,100518.93
2022-12-08T04:21:14.715Z,100519.84
2022-12-08T04:23:41.715Z,100518.42
2022-12-08T04:26:08.863Z,100519.30
2022-12-08T04:28:36.388Z,100519.80
2022-12-08T04:31:03.809Z,100520.46
2022-12-08T04:33:30.785Z,100523.56
2022-12-08T04:35:57.420Z,100526.34
2022-12-08T04:38:24.196Z,100532.06
2022-12-08T04:40:50.808Z,100532.45
2022-12-08T04:43:17.556Z,100537.79
2022-12-08T04:45:44.210Z,100532.15
2022-12-08T04:48:14.225Z,100537.35
2022-12-08T04:50:42.935Z,100537.05
2022-12-08T04:53:11.160Z,100538.95
2022-12-08T04:55:40.717Z,100542.98
2022-12-08T04:58:07.572Z,100548.02
2022-12-08T05:00:34.175Z,100547.54
2022-12-08T05:03:01.015Z,100545.05
2022-12-08T05:05:27.747Z,100546.67
2022-12-08T05:07:54.577Z,100547.61
2022-12-08T05:10:21.324Z,100550.45
2022-12-08T05:12:47.962Z,100549.51
2022-12-08T05:15:14.713Z,100549.73
2022-12-08T05:17:41.444Z,100550.86
2022-12-08T05:20:09.177Z,100555.40
2022-12-08T05:22:35.937Z,100558.91
2022-12-08T05:25:02.890Z,100558.98
2022-12-08T05:27:30.140Z,100562.80
2022-12-08T05:29:56.708Z,100561.48
2022-12-08T05:32:23.359Z,100559.06
2022-12-08T05:34:49.948Z,100564.48
2022-12-08T05:37:16.764Z,100563.68
2022-12-08T05:39:43.428Z,100567.01
2022-12-08T05:42:10.183Z,100570.16
2022-12-08T05:44:36.988Z,100569.34
2022-12-08T05:47:03.819Z,100571.25
2022-12-08T05:49:30.588Z,100573.66
2022-12-08T05:51:57.226Z,100572.29
2022-12-08T05:54:23.863Z,100574.50
2022-12-08T05:56:50.500Z,100574.39
2022-12-08T05:59:17.140Z,100585.02
2022-12-08T06:01:44.250Z,100589.61
2022-12-08T06:04:11.129Z,100589.25
2022-12-08T06:06:38.171Z,100591.83
2022-12-08T06:09:05.627Z,100592.02
2022-12-08T06:11:32.982Z,100594.95
2022-12-08T06:14:00.278Z,100602.71
2022-12-08T06:16:27.830Z,100605.44
2022-12-08T06:18:55.489Z,100607.16
2022-12-08T06:21:22.602Z,100613.67
2022-12-08T06:23:51.555Z,100611.93
2022-12-08T06:26:19.148Z,100613.41
2022-12-08T06:28:45.803Z,100613.80
2022-12-08T06:31:24.619Z,100621.48
2022-12-08T06:33:52.229Z,100624.16
2022-12-08T06:36:21.470Z,100626.89
2022-12-08T06:38:48.660Z,100630.30
2022-12-08T06:41:16.456Z,100629.39
2022-12-08T06:43:43.942Z,100634.63
2022-12-08T06:46:17.226Z,100637.85
2022-12-08T06:48:44.591Z,100641.36
2022-12-08T06:51:14.505Z,100644.43
2022-12-08T06:53:42.315Z,100643.04
2022-12-08T06:56:09.440Z,100649.95
2022-12-08T06:58:36.506Z,100648.91
2022-12-08T07:01:08.295Z,100653.06
2022-12-08T07:03:36.605Z,100649.42
2022-12-08T07:06:04.720Z,100647.84
2022-12-08T07:08:32.520Z,100649.90
2022-12-08T07:10:59.572Z,100655.25
2022-12-08T07:13:26.250Z,100650.14
2022-12-08T07:15:52.845Z,100653.05
2022-12-08T07:18:19.483Z,100650.14
2022-12-08T07:20:46.122Z,100653.52
2022-12-08T07:23:12.707Z,100656.09
2022-12-08T07:25:39.395Z,100662.61
2022-12-08T07:28:10.845Z,100665.02
2022-12-08T07:30:38.802Z,100665.04
2022-12-08T07:33:06.166Z,100666.08
2022-12-08T07:35:35.076Z,100669.54
2022-12-08T07:38:02.354Z,100671.27
2022-12-08T07:40:29.018Z,100676.61
2022-12-08T07:42:55.652Z,100679.00
2022-12-08T07:45:25.635Z,100677.62
2022-12-08T07:47:56.388Z,100684.48
2022-12-08T07:50:23.065Z,100685.51
2022-12-08T07:52:49.707Z,100687.52
2022-12-08T07:55:16.370Z,100694.32
2022-12-08T07:57:42.978Z,100697.05
2022-12-08T08:00:10.740Z,100701.70
2022-12-08T08:02:41.488Z,100703.89
2022-12-08T08:05:09.501Z,100702.63
2022-12-08T08:07:36.841Z,100706.20
2022-12-08T08:10:05.014Z,100711.95
2022-12-08T08:12:32.934Z,100715.13
2022-12-08T08:15:00.922Z,100719.33
2022-12-08T08:17:29.309Z,100717.96
2022-12-08T08:19:56.740Z,100725.71
2022-12-08T08:22:24.627Z,100724.23
2022-12-08T08:24:51.965Z,100730.46
2022-12-08T08:27:19.192Z,100736.23
2022-12-08T08:29:46.248Z,100737.35
2022-12-08T08:32:13.095Z,100741.16
2022-12-08T08:34:39.734Z,100740.80
2022-12-08T08:37:06.431Z,100744.05
2022-12-08T08:39:33.220Z,100745.98
2022-12-08T08:41:59.797Z,100750.66
2022-12-08T08:44:26.599Z,100753.83
2022-12-08T08:46:53.361Z,100755.65
2022-12-08T08:49:20.756Z,100756.66
2022-12-08T08:51:47.523Z,100762.46
2022-12-08T08:54:14.884Z,100764.10
2022-12-08T08:56:41.921Z,100767.85
2022-12-08T08:59:09.285Z,100764.80
2022-12-08T09:01:36.066Z,100763.55
2022-12-08T09:04:02.917Z,100770.53
2022-12-08T09:06:30.029Z,100771.98
2022-12-08T09:08:56.834Z,100770.54
2022-12-08T09:11:23.775Z,100770.25
2022-12-08T09:13:51.618Z,100767.61
2022-12-08T09:16:19.471Z,100770.10
2022-12-08T09:18:47.897Z,100765.89
2022-12-08T09:21:19.735Z,100763.04
2022-12-08T09:23:46.398Z,100758.41
2022-12-08T09:26:13.000Z,100761.91
2022-12-08T09:28:39.676Z,100766.05
2022-12-08T09:31:06.269Z,100765.52
2022-12-08T09:33:33.452Z,100763.73
2022-12-08T09:36:04.337Z,100765.73
2022-12-08T09:38:31.134Z,100763.56
2022-12-08T09:40:58.688Z,100767.45
2022-12-08T09:43:46.571Z,100763.27
2022-12-08T09:46:16.948Z,100764.14
2022-12-08T09:48:55.388Z,100762.10
2022-12-08T09:51:28.610Z,100765.93
2022-12-08T09:54:01.002Z,100768.89
2022-12-08T09:56:32.420Z,100772.25
2022-12-08T09:59:12.641Z,100776.80
2022-12-08T10:01:41.196Z,100777.70
2022-12-08T10:04:25.162Z,100776.55
2022-12-08T10:07:22.148Z,100774.70
2022-12-08T10:10:13.293Z,100773.59
2022-12-08T10:12:45.916Z,100775.45
2022-12-08T10:15:43.581Z,100771.02
2022-12-08T10:18:19.507Z,100771.34
2022-12-08T10:20:48.875Z,100766.04
2022-12-08T10:23:27.933Z,100760.25
2022-12-08T10:26:01.074Z,100762.69
2022-12-08T10:28:27.813Z,100761.18
2022-12-08T10:30:54.449Z,100756.77
2022-12-08T10:33:21.961Z,100754.52
2022-12-08T10:35:52.752Z,100753.02
2022-12-08T10:38:26.654Z,100752.22
2022-12-08T10:41:06.857Z,100742.46
2022-12-08T10:43:42.023Z,100740.70
2022-12-08T10:46:19.445Z,100735.84
2022-12-08T10:49:10.966Z,100732.71
2022-12-08T10:51:40.026Z,100730.89
2022-12-08T10:54:27.834Z,100732.14
2022-12-08T10:56:56.923Z,100733.03
2022-12-08T10:59:26.389Z,100727.23
2022-12-08T11:01:55.574Z,100729.02
2022-12-08T11:04:34.033Z,100730.27
2022-12-08T11:07:01.951Z,100723.70
2022-12-08T11:09:46.259Z,100723.56
2022-12-08T11:12:15.239Z,100722.54
2022-12-08T11:14:41.896Z,100715.58
2022-12-08T11:17:13.206Z,100719.70
2022-12-08T11:19:43.050Z,100716.79
2022-12-08T11:22:21.713Z,100712.36
2022-12-08T11:25:01.656Z,100709.75
2022-12-08T11:27:28.870Z,100713.44
2022-12-08T11:29:55.841Z,100710.75
2022-12-08T11:32:22.591Z,100715.60
2022-12-08T11:34:55.551Z,100709.98
2022-12-08T11:37:40.198Z,100705.55
2022-12-08T11:40:21.443Z,100713.23
2022-12-08T11:43:15.972Z,100709.48
2022-12-08T11:45:43.816Z,100702.02
2022-12-08T11:48:16.022Z,100705.98
2022-12-08T11:51:09.630Z,100697.95
2022-12-08T11:53:48.559Z,100691.34
2022-12-08T11:56:37.131Z,100689.52
2022-12-08T11:59:23.615Z,100690.38
2022-12-08T12:01:50.754Z,100689.30
2022-12-08T12:04:43.872Z,100690.27
2022-12-08T12:07:32.448Z,100691.07
2022-12-08T12:10:25.139Z,100681.88
2022-12-08T12:13:07.932Z,100681.00
2022-12-08T12:15:56.386Z,100682.43
2022-12-08T12:18:35.235Z,100688.40
2022-12-08T12:21:18.603Z,100683.93
2022-12-08T12:23:47.454Z,100680.63
2022-12-08T12:26:24.370Z,100672.91
2022-12-08T12:29:02.605Z,100669.57
2022-12-08T12:31:33.416Z,100665.63
2022-12-08T12:34:12.431Z,100665.64
2022-12-08T12:36:53.752Z,100659.76
2022-12-08T12:39:28.852Z,100657.55
2022-12-08T12:41:58.252Z,100659.83
2022-12-08T12:44:45.217Z,100660.52
2022-12-08T12:47:13.974Z,100660.98
2022-12-08T12:49:40.806Z,100660.02
2022-12-08T12:52:20.391Z,100660.27
2022-12-08T12:54:49.969Z,100653.87
2022-12-08T12:57:19.335Z,100650.66
2022-12-08T12:59:51.624Z,100649.13
2022-12-08T13:02:38.005Z,100652.27
2022-12-08T13:05:25.943Z,100650.18
2022-12-08T13:08:00.229Z,100644.94
2022-12-08T13:10:34.838Z,100638.70
2022-12-08T13:13:12.004Z,100637.09
2022-12-08T13:15:46.477Z,100632.55
2022-12-08T13:18:38.268Z,100633.39
2022-12-08T13:21:08.105Z,100632.23
2022-12-08T13:23:37.746Z,100627.98
2022-12-08T13:26:12.112Z,100624.58
2022-12-08T13:29:03.543Z,100627.33
2022-12-08T13:31:58.632Z,100630.92
2022-12-08T13:34:44.828Z,100628.94
2022-12-08T13:37:11.431Z,100628.08
2022-12-08T13:40:07.295Z,100632.10
2022-12-08T13:42:39.966Z,100631.80
2022-12-08T13:45:33.535Z,100637.80
2022-12-08T13:57:23.918Z,100630.56
2022-12-08T13:59:50.614Z,100627.78
2022-12-08T14:02:27.399Z,100624.44
2022-12-08T14:05:17.668Z,100619.47
2022-12-08T14:07:42.557Z,100619.82
2022-12-08T14:10:31.413Z,100619.47
2022-12-08T14:13:02.349Z,100617.21
2022-12-08T14:15:37.187Z,100615.36
2022-12-08T14:18:20.736Z,100612.48
2022-12-08T14:21:21.981Z,100612.95
2022-12-08T14:23:48.814Z,100612.15
2022-12-08T14:26:15.459Z,100607.89
2022-12-08T14:28:45.164Z,100607.52
2022-12-08T14:31:13.856Z,100607.56
2022-12-08T14:33:40.862Z,100610.52
2022-12-08T14:36:10.191Z,100603.52
2022-12-08T14:38:37.196Z,100605.38
2022-12-08T14:41:07.316Z,100607.42
2022-12-08T14:43:34.688Z,100603.30
2022-12-08T14:46:32.295Z,100604.89
2022-12-08T14:48:59.179Z,100610.21
2022-12-08T14:51:31.614Z,100608.77
2022-12-08T14:54:17.594Z,100610.06
2022-12-08T14:56:55.489Z,100613.17
2022-12-08T14:59:29.886Z,100613.46
2022-12-08T15:02:30.614Z,100611.90
2022-12-08T15:05:18.599Z,100611.92
2022-12-08T15:08:01.853Z,100615.77
2022-12-08T15:10:32.067Z,100611.42
2022-12-08T15:13:09.312Z,100606.95
2022-12-08T15:15:54.090Z,100603.02
2022-12-08T15:18:36.439Z,100602.50
2022-12-08T15:21:06.034Z,100603.45
2022-12-08T15:23:41.952Z,100608.16
2022-12-08T15:26:09.921Z,100608.36
2022-12-08T15:28:36.589Z,100607.70
2022-12-08T15:31:03.238Z,100612.37
2022-12-08T15:33:29.889Z,100614.70
2022-12-08T15:35:56.527Z,100613.67
2022-12-08T15:38:26.507Z,100612.17
2022-12-08T15:40:54.307Z,100609.80
2022-12-08T15:43:21.916Z,100610.95
2022-12-08T15:45:58.494Z,100613.25
2022-12-08T15:48:28.685Z,100610.51
2022-12-08T15:50:56.117Z,100606.86
2022-12-08T15:53:22.878Z,100606.77
2022-12-08T15:56:25.273Z,100604.05
2022-12-08T15:58:55.162Z,100601.14
2022-12-08T16:01:22.731Z,100602.40
2022-12-08T16:09:31.938Z,100603.79
2022-12-08T16:12:17.156Z,100606.92
2022-12-08T16:17:31.327Z,100606.73
2022-12-08T16:19:59.193Z,100604.52
2022-12-08T16:22:52.783Z,100596.30
2022-12-08T16:25:20.562Z,100595.08
2022-12-08T16:28:12.639Z,100593.89
2022-12-08T16:30:41.553Z,100596.44
2022-12-08T16:33:10.753Z,100594.11
2022-12-08T16:35:37.702Z,100596.46
2022-12-08T16:38:04.354Z,100595.27
2022-12-08T16:40:31.328Z,100592.35
2022-12-08T16:42:58.002Z,100590.77
2022-12-08T16:45:28.115Z,100586.27
2022-12-08T16:47:59.675Z,100586.66
2022-12-08T16:50:34.416Z,100577.98
2022-12-08T16:53:07.191Z,100567.50
2022-12-08T16:55:34.836Z,100565.96
2022-12-08T16:58:04.751Z,100570.98
2022-12-08T17:00:36.475Z,100568.77
2022-12-08T17:03:04.823Z,100570.52
2022-12-08T17:05:31.621Z,100570.25
2022-12-08T17:07:58.558Z,100565.85
2022-12-08T17:10:28.667Z,100568.52
2022-12-08T17:12:56.048Z,100569.93
2022-12-08T17:15:25.139Z,100567.38
2022-12-08T17:17:52.885Z,100563.39
2022-12-08T17:20:27.862Z,100563.05
2022-12-08T17:22:57.237Z,100562.16
2022-12-08T17:25:25.473Z,100566.66
2022-12-08T17:27:52.183Z,100566.98
2022-12-08T17:30:19.107Z,100563.20
2022-12-08T17:32:46.071Z,100560.81
2022-12-08T17:35:13.784Z,100559.09
2022-12-08T17:37:40.587Z,100552.73
2022-12-08T17:40:08.246Z,100552.80
2022-12-08T17:42:35.055Z,100552.66
2022-12-08T17:45:01.656Z,100551.62
2022-12-08T17:47:28.555Z,100557.85
2022-12-08T17:49:55.692Z,100553.34
2022-12-08T17:52:22.360Z,100554.51
2022-12-08T17:54:48.980Z,100559.25
2022-12-08T17:57:15.592Z,100551.33
2022-12-08T17:59:42.225Z,100559.21
2022-12-08T18:02:11.411Z,100555.31
2022-12-08T18:04:38.180Z,100552.29
2022-12-08T18:07:04.831Z,100552.69
2022-12-08T18:09:32.095Z,100554.12
2022-12-08T18:11:59.315Z,100554.18
2022-12-08T18:14:26.020Z,100555.17
2022-12-08T18:16:52.682Z,100556.38
2022-12-08T18:19:19.407Z,100549.07
2022-12-08T18:21:46.170Z,100555.02
2022-12-08T18:24:21.449Z,100556.06
2022-12-08T18:26:50.043Z,100552.23
2022-12-08T18:29:17.013Z,100551.30
2022-12-08T18:31:43.704Z,100549.63
2022-12-08T18:34:10.328Z,100548.15
2022-12-08T18:36:36.922Z,100543.94
2022-12-08T18:39:10.208Z,100544.39
2022-12-08T18:41:37.551Z,100545.86
2022-12-08T18:44:04.522Z,100549.30
2022-12-08T18:46:31.242Z,100549.98
2022-12-08T18:48:58.839Z,100548.20
2022-12-08T18:51:25.471Z,100546.76
2022-12-08T18:53:52.510Z,100550.60
2022-12-08T18:56:30.858Z,100547.84
2022-12-08T18:59:04.127Z,100548.55
2022-12-08T19:01:33.079Z,100549.64
2022-12-08T19:04:27.519Z,100551.25
2022-12-08T19:06:49.398Z,100544.74
2022-12-08T19:09:16.675Z,100540.89
2022-12-08T19:11:43.765Z,100542.73
2022-12-08T19:14:11.165Z,100542.20
2022-12-08T19:16:38.235Z,100542.09
2022-12-08T19:19:05.150Z,100543.52
2022-12-08T19:21:32.434Z,100543.17
2022-12-08T19:23:59.378Z,100551.31
2022-12-08T19:26:27.617Z,100553.67
2022-12-08T19:28:54.766Z,100556.05
2022-12-08T19:31:21.393Z,100555.61
2022-12-08T19:33:48.299Z,100557.98
2022-12-08T19:36:17.691Z,100563.50
2022-12-08T19:39:02.747Z,100562.10
2022-12-08T19:41:48.115Z,100562.73
2022-12-08T19:44:39.360Z,100562.85
2022-12-08T19:47:06.302Z,100571.03
2022-12-08T19:49:32.972Z,100574.29
2022-12-08T19:52:00.477Z,100577.75
2022-12-08T19:54:27.404Z,100577.81
2022-12-08T19:56:54.099Z,100586.16
2022-12-08T19:59:21.152Z,100580.87
2022-12-08T20:01:48.618Z,100585.05
2022-12-08T20:04:16.008Z,100589.91
2022-12-08T20:06:44.597Z,100589.09
2022-12-08T20:09:12.461Z,100590.66
2022-12-08T20:11:39.998Z,100590.69
2022-12-08T20:14:07.116Z,100592.08
2022-12-08T20:16:34.393Z,100594.16
2022-12-08T20:19:01.699Z,100597.97
2022-12-08T20:21:28.522Z,100603.40
2022-12-08T20:23:55.601Z,100604.48
2022-12-08T20:26:23.137Z,100598.81
2022-12-08T20:28:50.350Z,100601.23
2022-12-08T20:31:26.146Z,100599.52
2022-12-08T20:33:53.630Z,100589.29
2022-12-08T20:36:21.601Z,100599.30
2022-12-08T20:38:50.094Z,100598.45
2022-12-08T20:41:17.830Z,100594.67
2022-12-08T20:43:46.068Z,100594.16
2022-12-08T20:46:15.689Z,100596.44
2022-12-08T20:48:43.888Z,100597.16
2022-12-08T20:51:19.557Z,100594.58
2022-12-08T20:53:46.458Z,100596.17
2022-12-08T20:56:17.951Z,100597.04
2022-12-08T20:58:45.209Z,100605.52
2022-12-08T21:01:13.892Z,100605.73
2022-12-08T21:03:41.672Z,100609.70
2022-12-08T21:06:08.989Z,100611.92
2022-12-08T21:08:36.343Z,100611.61
2022-12-08T21:11:04.949Z,100613.31
2022-12-08T21:13:32.055Z,100622.30
2022-12-08T21:15:59.355Z,100627.98
2022-12-08T21:18:26.106Z,100631.41
2022-12-08T21:21:01.341Z,100644.37
2022-12-08T21:23:28.107Z,100647.08
2022-12-08T21:25:54.967Z,100640.87
2022-12-08T21:28:21.789Z,100645.03
2022-12-08T21:30:48.714Z,100643.34
2022-12-08T21:33:15.619Z,100647.60
2022-12-08T21:35:42.840Z,100646.01
2022-12-08T21:38:09.667Z,100647.73
2022-12-08T21:40:36.667Z,100650.98
2022-12-08T21:43:03.416Z,100649.55
2022-12-08T21:45:30.522Z,100651.62
2022-12-08T21:47:58.635Z,100652.66
2022-12-08T21:50:25.677Z,100655.27
2022-12-08T21:52:52.307Z,100655.95
2022-12-08T21:55:19.836Z,100657.67
2022-12-08T21:57:47.003Z,100660.94
2022-12-08T22:00:15.757Z,100658.15
2022-12-08T22:02:43.115Z,100656.05
2022-12-08T22:05:10.788Z,100653.97
2022-12-08T22:07:39.360Z,100653.48
2022-12-08T22:10:07.753Z,100655.95
2022-12-08T22:12:35.363Z,100654.44
2022-12-08T22:15:05.255Z,100655.66
2022-12-08T22:17:36.954Z,100656.14
2022-12-08T22:20:10.129Z,100657.70
2022-12-08T22:22:37.322Z,100661.02
2022-12-08T22:25:05.597Z,100664.33
2022-12-08T22:27:35.133Z,100666.77
2022-12-08T22:30:02.994Z,100669.04
2022-12-08T22:32:29.903Z,100673.70
2022-12-08T22:34:57.342Z,100676.11
2022-12-08T22:37:24.231Z,100674.02
2022-12-08T22:39:50.967Z,100677.15
2022-12-08T22:42:18.520Z,100680.42
2022-12-08T22:44:45.330Z,100681.10
2022-12-08T22:47:12.166Z,100685.92
2022-12-08T22:49:38.950Z,100683.71
2022-12-08T22:52:05.598Z,100689.39
2022-12-08T22:54:32.512Z,100687.50
2022-12-08T22:56:59.286Z,100691.28
2022-12-08T22:59:26.044Z,100693.32
2022-12-08T23:01:53.502Z,100693.86
2022-12-08T23:04:20.359Z,100695.63
2022-12-08T23:06:47.305Z,100698.23
2022-12-08T23:09:14.059Z,100697.20
2022-12-08T23:11:40.980Z,100698.97
2022-12-08T23:14:07.552Z,100698.83
2022-12-08T23:16:34.323Z,100701.25
2022-12-08T23:19:01.122Z,100702.63
2022-12-08T23:21:28.890Z,100702.65
2022-12-08T23:23:55.816Z,100702.11
2022-12-08T23:26:28.108Z,100709.02
2022-12-08T23:29:42.667Z,100709.88
2022-12-08T23:32:28.304Z,100716.23
2022-12-08T23:34:55.218Z,100715.89
2022-12-08T23:37:21.979Z,100716.77
2022-12-08T23:39:48.929Z,100714.48
2022-12-08T23:42:15.889Z,100714.63
2022-12-08T23:44:42.634Z,100716.86
2022-12-08T23:47:09.573Z,100715.83
2022-12-08T23:49:36.510Z,100720.52
2022-12-08T23:52:03.953Z,100723.47
2022-12-08T23:54:30.881Z,100724.21
2022-12-08T23:56:57.513Z,100726.34
2022-12-08T23:59:24.081Z,100729.65
